sensor_id;sensor_type;location;lat;lon;timestamp;pressure;altitude;pressure_sealevel;temperature;humidity
55914;BME280;58179;48.776;9.124;2022-09-09T00:01:06;97014.44;;;14.92;92.11
55914;BME280;58179;48.776;9.124;2022-09-09T00:03:42;97025.09;;;14.92;92.83
55914;BME280;58179;48.776;9.124;2022-09-09T00:06:17;97009.13;;;14.92;93.10
55914;BME280;58179;48.776;9.124;2022-09-09T00:09:00;97011.78;;;14.92;92.20
55914;BME280;58179;48.776;9.124;2022-09-09T00:11:40;97012.34;;;14.89;88.96
55914;BME280;58179;48.776;9.124;2022-09-09T00:14:16;97009.47;;;14.85;89.58
55914;BME280;58179;48.776;9.124;2022-09-09T00:16:49;97010.84;;;14.83;91.54
55914;BME280;58179;48.776;9.124;2022-09-09T00:19:23;97001.56;;;14.80;92.20
55914;BME280;58179;48.776;9.124;2022-09-09T00:22:00;97002.84;;;14.83;92.40
55914;BME280;58179;48.776;9.124;2022-09-09T00:24:35;96999.63;;;14.86;92.74
55914;BME280;58179;48.776;9.124;2022-09-09T00:27:08;97004.66;;;14.87;92.43
55914;BME280;58179;48.776;9.124;2022-09-09T00:29:43;96999.63;;;14.86;93.17
55914;BME280;58179;48.776;9.124;2022-09-09T00:32:16;97006.53;;;14.87;89.01
55914;BME280;58179;48.776;9.124;2022-09-09T00:34:48;97006.31;;;14.83;91.06
55914;BME280;58179;48.776;9.124;2022-09-09T00:37:15;97001.19;;;14.87;90.32
55914;BME280;58179;48.776;9.124;2022-09-09T00:39:46;96993.69;;;14.89;91.84
55914;BME280;58179;48.776;9.124;2022-09-09T00:42:16;96998.47;;;14.92;93.38
55914;BME280;58179;48.776;9.124;2022-09-09T00:44:56;96984.25;;;14.96;94.59
55914;BME280;58179;48.776;9.124;2022-09-09T00:47:40;96994.06;;;15.01;88.92
55914;BME280;58179;48.776;9.124;2022-09-09T00:53:26;96996.13;;;15.04;89.61
55914;BME280;58179;48.776;9.124;2022-09-09T00:56:03;97007.31;;;15.06;90.67
55914;BME280;58179;48.776;9.124;2022-09-09T00:58:30;96991.03;;;15.07;85.81
55914;BME280;58179;48.776;9.124;2022-09-09T01:01:03;96999.84;;;15.08;82.37
55914;BME280;58179;48.776;9.124;2022-09-09T01:03:36;96998.94;;;15.13;84.14
55914;BME280;58179;48.776;9.124;2022-09-09T01:06:14;96998.38;;;15.16;84.32
55914;BME280;58179;48.776;9.124;2022-09-09T01:09:02;96991.59;;;15.23;87.23
55914;BME280;58179;48.776;9.124;2022-09-09T01:11:38;96991.59;;;15.23;81.05
55914;BME280;58179;48.776;9.124;2022-09-09T01:14:16;96990.25;;;15.26;81.03
55914;BME280;58179;48.776;9.124;2022-09-09T01:16:47;96985.63;;;15.31;84.36
55914;BME280;58179;48.776;9.124;2022-09-09T01:19:23;96988.00;;;15.33;85.71
55914;BME280;58179;48.776;9.124;2022-09-09T01:22:01;96998.56;;;15.38;87.90
55914;BME280;58179;48.776;9.124;2022-09-09T01:24:37;96999.88;;;15.40;86.85
55914;BME280;58179;48.776;9.124;2022-09-09T01:27:07;97002.03;;;15.38;87.04
55914;BME280;58179;48.776;9.124;2022-09-09T01:29:33;97009.03;;;15.34;81.64
55914;BME280;58179;48.776;9.124;2022-09-09T01:32:01;97008.22;;;15.34;85.71
55914;BME280;58179;48.776;9.124;2022-09-09T01:34:33;97014.94;;;15.31;85.64
55914;BME280;58179;48.776;9.124;2022-09-09T01:37:04;97012.47;;;15.35;84.61
55914;BME280;58179;48.776;9.124;2022-09-09T01:39:32;97011.69;;;15.34;86.47
55914;BME280;58179;48.776;9.124;2022-09-09T01:41:59;97004.19;;;15.36;86.20
55914;BME280;58179;48.776;9.124;2022-09-09T01:44:28;96998.88;;;15.36;84.28
55914;BME280;58179;48.776;9.124;2022-09-09T01:46:55;97006.34;;;15.34;85.37
55914;BME280;58179;48.776;9.124;2022-09-09T01:49:21;97012.56;;;15.30;83.99
55914;BME280;58179;48.776;9.124;2022-09-09T01:51:52;97010.19;;;15.28;87.84
55914;BME280;58179;48.776;9.124;2022-09-09T01:54:19;97009.19;;;15.24;88.29
55914;BME280;58179;48.776;9.124;2022-09-09T01:56:56;97013.72;;;15.24;86.75
55914;BME280;58179;48.776;9.124;2022-09-09T01:59:45;96998.09;;;15.17;84.67
55914;BME280;58179;48.776;9.124;2022-09-09T02:02:18;96994.41;;;15.13;87.53
55914;BME280;58179;48.776;9.124;2022-09-09T02:04:48;96988.09;;;15.09;83.73
55914;BME280;58179;48.776;9.124;2022-09-09T02:07:28;96988.75;;;15.01;85.85
55914;BME280;58179;48.776;9.124;2022-09-09T02:10:02;96998.88;;;14.99;87.36
55914;BME280;58179;48.776;9.124;2022-09-09T02:12:31;97003.72;;;14.97;88.56
55914;BME280;58179;48.776;9.124;2022-09-09T02:15:03;97005.66;;;14.91;88.13
55914;BME280;58179;48.776;9.124;2022-09-09T02:17:35;97010.19;;;14.91;86.93
55914;BME280;58179;48.776;9.124;2022-09-09T02:20:06;97016.16;;;14.83;85.29
55914;BME280;58179;48.776;9.124;2022-09-09T02:22:34;97002.03;;;14.82;86.97
55914;BME280;58179;48.776;9.124;2022-09-09T02:25:05;97003.44;;;14.80;84.64
55914;BME280;58179;48.776;9.124;2022-09-09T02:27:32;97001.13;;;14.73;84.97
55914;BME280;58179;48.776;9.124;2022-09-09T02:30:01;97006.72;;;14.71;87.88
55914;BME280;58179;48.776;9.124;2022-09-09T02:32:29;97025.94;;;14.68;88.25
55914;BME280;58179;48.776;9.124;2022-09-09T02:35:00;97022.03;;;14.61;86.70
55914;BME280;58179;48.776;9.124;2022-09-09T02:37:31;97019.44;;;14.56;88.26
55914;BME280;58179;48.776;9.124;2022-09-09T02:40:01;97012.28;;;14.51;90.72
55914;BME280;58179;48.776;9.124;2022-09-09T02:42:27;97014.22;;;14.46;91.65
55914;BME280;58179;48.776;9.124;2022-09-09T02:44:53;97009.78;;;14.41;92.23
55914;BME280;58179;48.776;9.124;2022-09-09T02:47:37;97009.50;;;14.38;92.09
55914;BME280;58179;48.776;9.124;2022-09-09T02:50:12;97010.38;;;14.33;93.04
55914;BME280;58179;48.776;9.124;2022-09-09T02:52:52;97008.25;;;14.30;93.52
55914;BME280;58179;48.776;9.124;2022-09-09T02:55:26;96998.19;;;14.27;93.72
55914;BME280;58179;48.776;9.124;2022-09-09T02:57:55;96998.75;;;14.24;92.89
55914;BME280;58179;48.776;9.124;2022-09-09T03:00:24;96994.28;;;14.19;94.03
55914;BME280;58179;48.776;9.124;2022-09-09T03:02:52;96995.34;;;14.18;92.88
55914;BME280;58179;48.776;9.124;2022-09-09T03:05:19;96991.09;;;14.17;94.58
55914;BME280;58179;48.776;9.124;2022-09-09T03:07:45;96986.91;;;14.11;94.80
55914;BME280;58179;48.776;9.124;2022-09-09T03:10:11;96991.44;;;14.11;95.36
55914;BME280;58179;48.776;9.124;2022-09-09T03:12:36;96988.53;;;14.07;95.43
55914;BME280;58179;48.776;9.124;2022-09-09T03:15:03;96993.38;;;14.05;93.39
55914;BME280;58179;48.776;9.124;2022-09-09T03:17:29;96989.13;;;14.04;94.86
55914;BME280;58179;48.776;9.124;2022-09-09T03:19:56;96989.94;;;14.05;95.32
55914;BME280;58179;48.776;9.124;2022-09-09T03:22:24;96984.28;;;14.06;95.66
55914;BME280;58179;48.776;9.124;2022-09-09T03:24:51;96990.13;;;14.08;95.56
55914;BME280;58179;48.776;9.124;2022-09-09T03:27:17;96987.47;;;14.08;96.12
55914;BME280;58179;48.776;9.124;2022-09-09T03:29:43;97001.31;;;14.10;96.21
55914;BME280;58179;48.776;9.124;2022-09-09T03:32:09;96993.59;;;14.09;95.17
55914;BME280;58179;48.776;9.124;2022-09-09T03:34:36;96989.59;;;14.11;94.75
55914;BME280;58179;48.776;9.124;2022-09-09T03:37:06;96993.53;;;14.14;95.86
55914;BME280;58179;48.776;9.124;2022-09-09T03:39:32;96995.91;;;14.15;96.01
55914;BME280;58179;48.776;9.124;2022-09-09T03:41:58;97005.50;;;14.16;95.84
55914;BME280;58179;48.776;9.124;2022-09-09T03:44:24;96999.09;;;14.17;90.62
55914;BME280;58179;48.776;9.124;2022-09-09T03:46:50;96998.09;;;14.13;87.60
55914;BME280;58179;48.776;9.124;2022-09-09T03:49:16;96998.09;;;14.13;91.07
55914;BME280;58179;48.776;9.124;2022-09-09T03:51:42;96997.28;;;14.13;92.34
55914;BME280;58179;48.776;9.124;2022-09-09T03:54:09;97001.03;;;14.12;89.74
55914;BME280;58179;48.776;9.124;2022-09-09T03:56:36;96989.84;;;14.10;92.67
55914;BME280;58179;48.776;9.124;2022-09-09T03:59:02;97000.50;;;14.10;93.61
55914;BME280;58179;48.776;9.124;2022-09-09T04:01:28;96996.50;;;14.12;93.89
55914;BME280;58179;48.776;9.124;2022-09-09T04:03:54;97001.81;;;14.12;94.18
55914;BME280;58179;48.776;9.124;2022-09-09T04:06:24;96996.50;;;14.12;92.74
55914;BME280;58179;48.776;9.124;2022-09-09T04:08:50;96996.63;;;14.21;94.53
55914;BME280;58179;48.776;9.124;2022-09-09T04:11:19;96993.22;;;14.20;93.73
55914;BME280;58179;48.776;9.124;2022-09-09T04:13:45;96997.97;;;14.23;94.73
55914;BME280;58179;48.776;9.124;2022-09-09T04:16:12;96987.03;;;14.25;94.92
55914;BME280;58179;48.776;9.124;2022-09-09T04:18:39;97004.31;;;14.27;94.53
55914;BME280;58179;48.776;9.124;2022-09-09T04:21:05;97001.66;;;14.27;94.87
55914;BME280;58179;48.776;9.124;2022-09-09T04:23:33;97000.56;;;14.28;95.74
55914;BME280;58179;48.776;9.124;2022-09-09T04:26:01;97006.38;;;14.30;94.07
55914;BME280;58179;48.776;9.124;2022-09-09T04:28:31;97001.59;;;14.32;94.73
55914;BME280;58179;48.776;9.124;2022-09-09T04:31:03;97010.56;;;14.37;95.68
55914;BME280;58179;48.776;9.124;2022-09-09T04:33:29;97012.72;;;14.40;95.56
55914;BME280;58179;48.776;9.124;2022-09-09T04:35:56;97013.22;;;14.42;94.84
55914;BME280;58179;48.776;9.124;2022-09-09T04:38:23;97006.03;;;14.42;94.87
55914;BME280;58179;48.776;9.124;2022-09-09T04:40:50;97006.31;;;14.41;94.94
55914;BME280;58179;48.776;9.124;2022-09-09T04:43:17;97010.06;;;14.40;94.54
55914;BME280;58179;48.776;9.124;2022-09-09T04:45:48;97009.78;;;14.36;94.93
55914;BME280;58179;48.776;9.124;2022-09-09T04:48:14;97009.78;;;14.36;96.38
55914;BME280;58179;48.776;9.124;2022-09-09T04:50:41;97008.78;;;14.32;95.01
55914;BME280;58179;48.776;9.124;2022-09-09T04:53:07;97024.50;;;14.28;96.08
55914;BME280;58179;48.776;9.124;2022-09-09T04:55:34;97017.63;;;14.27;96.27
55914;BME280;58179;48.776;9.124;2022-09-09T04:58:04;97012.84;;;14.24;97.04
55914;BME280;58179;48.776;9.124;2022-09-09T05:00:30;97009.75;;;14.17;97.16
55914;BME280;58179;48.776;9.124;2022-09-09T05:02:57;97021.69;;;14.20;97.40
55914;BME280;58179;48.776;9.124;2022-09-09T05:05:25;97028.66;;;14.16;97.61
55914;BME280;58179;48.776;9.124;2022-09-09T05:07:51;97024.69;;;14.13;96.97
55914;BME280;58179;48.776;9.124;2022-09-09T05:10:17;97024.19;;;14.11;96.03
55914;BME280;58179;48.776;9.124;2022-09-09T05:12:52;97034.81;;;14.11;97.64
55914;BME280;58179;48.776;9.124;2022-09-09T05:15:18;97034.03;;;14.11;97.74
55914;BME280;58179;48.776;9.124;2022-09-09T05:17:44;97027.38;;;14.13;98.14
55914;BME280;58179;48.776;9.124;2022-09-09T05:20:12;97020.66;;;14.16;98.42
55914;BME280;58179;48.776;9.124;2022-09-09T05:22:37;97030.19;;;14.22;96.88
55914;BME280;58179;48.776;9.124;2022-09-09T05:25:04;97025.66;;;14.22;96.67
55914;BME280;58179;48.776;9.124;2022-09-09T05:27:30;97033.59;;;14.27;97.51
55914;BME280;58179;48.776;9.124;2022-09-09T05:29:57;97039.94;;;14.31;97.24
55914;BME280;58179;48.776;9.124;2022-09-09T05:32:23;97028.22;;;14.32;93.55
55914;BME280;58179;48.776;9.124;2022-09-09T05:34:49;97040.06;;;14.45;92.92
55914;BME280;58179;48.776;9.124;2022-09-09T05:37:17;97043.19;;;14.52;93.13
55914;BME280;58179;48.776;9.124;2022-09-09T05:39:44;97040.25;;;14.54;88.31
55914;BME280;58179;48.776;9.124;2022-09-09T05:42:10;97047.25;;;14.68;89.18
55914;BME280;58179;48.776;9.124;2022-09-09T05:44:36;97039.53;;;14.67;89.37
55914;BME280;58179;48.776;9.124;2022-09-09T05:47:03;97046.19;;;14.69;90.22
55914;BME280;58179;48.776;9.124;2022-09-09T05:49:29;97045.63;;;14.73;89.45
55914;BME280;58179;48.776;9.124;2022-09-09T05:51:54;97042.97;;;14.73;86.35
55914;BME280;58179;48.776;9.124;2022-09-09T05:54:22;97042.88;;;14.78;88.91
55914;BME280;58179;48.776;9.124;2022-09-09T05:56:48;97047.34;;;14.82;88.69
55914;BME280;58179;48.776;9.124;2022-09-09T05:59:16;97050.41;;;14.94;89.49
55914;BME280;58179;48.776;9.124;2022-09-09T06:01:42;97050.16;;;14.91;85.84
55914;BME280;58179;48.776;9.124;2022-09-09T06:04:08;97051.75;;;14.92;83.94
55914;BME280;58179;48.776;9.124;2022-09-09T06:06:37;97049.66;;;14.89;80.08
55914;BME280;58179;48.776;9.124;2022-09-09T06:09:06;97049.59;;;14.94;83.66
55914;BME280;58179;48.776;9.124;2022-09-09T06:11:39;97055.22;;;14.92;80.20
55914;BME280;58179;48.776;9.124;2022-09-09T06:14:05;97049.47;;;15.04;84.01
55914;BME280;58179;48.776;9.124;2022-09-09T06:16:32;97047.44;;;15.15;85.88
55914;BME280;58179;48.776;9.124;2022-09-09T06:18:59;97049.75;;;15.21;85.67
55914;BME280;58179;48.776;9.124;2022-09-09T06:21:27;97059.22;;;15.32;84.16
55914;BME280;58179;48.776;9.124;2022-09-09T06:23:53;97056.91;;;15.26;80.23
55914;BME280;58179;48.776;9.124;2022-09-09T06:26:21;97055.25;;;15.30;82.29
55914;BME280;58179;48.776;9.124;2022-09-09T06:28:51;97046.34;;;15.34;85.54
55914;BME280;58179;48.776;9.124;2022-09-09T06:31:20;97051.25;;;15.46;84.61
55914;BME280;58179;48.776;9.124;2022-09-09T06:33:48;97057.97;;;15.43;83.84
55914;BME280;58179;48.776;9.124;2022-09-09T06:36:17;97054.78;;;15.41;83.47
55914;BME280;58179;48.776;9.124;2022-09-09T06:38:44;97053.34;;;15.49;83.98
55914;BME280;58179;48.776;9.124;2022-09-09T06:41:12;97051.25;;;15.46;83.41
55914;BME280;58179;48.776;9.124;2022-09-09T06:43:38;97052.44;;;15.59;84.63
55914;BME280;58179;48.776;9.124;2022-09-09T06:46:09;97052.84;;;15.66;84.38
55914;BME280;58179;48.776;9.124;2022-09-09T06:48:36;97055.50;;;15.66;82.81
55914;BME280;58179;48.776;9.124;2022-09-09T06:51:05;97054.94;;;15.69;83.25
55914;BME280;58179;48.776;9.124;2022-09-09T06:53:32;97054.66;;;15.70;84.15
55914;BME280;58179;48.776;9.124;2022-09-09T06:55:59;97062.19;;;15.82;85.59
55914;BME280;58179;48.776;9.124;2022-09-09T06:58:26;97055.78;;;15.83;83.63
55914;BME280;58179;48.776;9.124;2022-09-09T07:00:52;97059.94;;;15.89;83.38
55914;BME280;58179;48.776;9.124;2022-09-09T07:03:19;97053.81;;;15.88;83.26
55914;BME280;58179;48.776;9.124;2022-09-09T07:05:54;97061.75;;;15.94;84.88
55914;BME280;58179;48.776;9.124;2022-09-09T07:08:21;97057.78;;;15.91;81.32
55914;BME280;58179;48.776;9.124;2022-09-09T07:10:47;97057.88;;;15.86;80.33
55914;BME280;58179;48.776;9.124;2022-09-09T07:13:13;97062.59;;;15.89;82.47
55914;BME280;58179;48.776;9.124;2022-09-09T07:15:41;97058.44;;;15.83;79.86
55914;BME280;58179;48.776;9.124;2022-09-09T07:18:07;97065.97;;;15.95;83.65
55914;BME280;58179;48.776;9.124;2022-09-09T07:20:36;97062.94;;;16.01;84.50
55914;BME280;58179;48.776;9.124;2022-09-09T07:23:02;97052.28;;;16.15;82.43
55914;BME280;58179;48.776;9.124;2022-09-09T07:25:28;97056.22;;;16.17;83.91
55914;BME280;58179;48.776;9.124;2022-09-09T07:27:56;97057.94;;;16.27;83.76
55914;BME280;58179;48.776;9.124;2022-09-09T07:30:22;97058.84;;;16.36;82.22
55914;BME280;58179;48.776;9.124;2022-09-09T07:32:50;97064.28;;;16.45;80.92
55914;BME280;58179;48.776;9.124;2022-09-09T07:35:16;97056.13;;;16.69;80.37
55914;BME280;58179;48.776;9.124;2022-09-09T07:37:43;97050.06;;;16.63;80.56
55914;BME280;58179;48.776;9.124;2022-09-09T07:40:10;97054.22;;;16.83;81.81
55914;BME280;58179;48.776;9.124;2022-09-09T07:42:36;97052.41;;;16.92;80.01
55914;BME280;58179;48.776;9.124;2022-09-09T07:45:03;97054.09;;;16.88;79.97
55914;BME280;58179;48.776;9.124;2022-09-09T07:47:30;97064.41;;;16.81;81.65
55914;BME280;58179;48.776;9.124;2022-09-09T07:49:55;97068.47;;;16.78;83.31
55914;BME280;58179;48.776;9.124;2022-09-09T07:52:22;97062.13;;;16.88;83.26
55914;BME280;58179;48.776;9.124;2022-09-09T07:54:49;97057.75;;;16.92;82.15
55914;BME280;58179;48.776;9.124;2022-09-09T07:57:15;97046.47;;;16.95;83.02
55914;BME280;58179;48.776;9.124;2022-09-09T07:59:42;97060.09;;;17.21;78.88
55914;BME280;58179;48.776;9.124;2022-09-09T08:02:09;97054.25;;;17.19;77.45
55914;BME280;58179;48.776;9.124;2022-09-09T08:04:35;97071.19;;;17.28;80.35
55914;BME280;58179;48.776;9.124;2022-09-09T08:07:01;97072.88;;;17.46;79.17
55914;BME280;58179;48.776;9.124;2022-09-09T08:09:29;97068.59;;;17.59;75.53
55914;BME280;58179;48.776;9.124;2022-09-09T08:11:57;97073.94;;;17.59;73.52
55914;BME280;58179;48.776;9.124;2022-09-09T08:14:24;97075.03;;;17.58;71.16
55914;BME280;58179;48.776;9.124;2022-09-09T08:16:50;97072.97;;;17.55;70.71
55914;BME280;58179;48.776;9.124;2022-09-09T08:19:16;97073.16;;;17.58;71.44
55914;BME280;58179;48.776;9.124;2022-09-09T08:21:44;97072.75;;;17.65;74.77
55914;BME280;58179;48.776;9.124;2022-09-09T08:24:11;97083.09;;;17.80;76.08
55914;BME280;58179;48.776;9.124;2022-09-09T08:26:40;97095.88;;;17.83;71.66
55914;BME280;58179;48.776;9.124;2022-09-09T08:29:10;97090.44;;;17.97;75.07
55914;BME280;58179;48.776;9.124;2022-09-09T08:31:39;97093.19;;;18.05;75.14
55914;BME280;58179;48.776;9.124;2022-09-09T08:34:07;97089.97;;;18.17;72.54
55914;BME280;58179;48.776;9.124;2022-09-09T08:36:37;97079.59;;;18.24;70.77
55914;BME280;58179;48.776;9.124;2022-09-09T08:39:05;97074.38;;;18.19;69.57
55914;BME280;58179;48.776;9.124;2022-09-09T08:42:23;97078.00;;;18.54;69.79
55914;BME280;58179;48.776;9.124;2022-09-09T08:45:20;97080.94;;;18.44;71.48
55914;BME280;58179;48.776;9.124;2022-09-09T08:48:02;97084.50;;;18.31;68.52
55914;BME280;58179;48.776;9.124;2022-09-09T08:50:36;97087.72;;;18.41;69.80
55914;BME280;58179;48.776;9.124;2022-09-09T08:53:11;97084.66;;;18.57;72.47
55914;BME280;58179;48.776;9.124;2022-09-09T08:55:46;97078.00;;;18.54;66.51
55914;BME280;58179;48.776;9.124;2022-09-09T08:58:16;97092.41;;;18.67;65.64
55914;BME280;58179;48.776;9.124;2022-09-09T09:01:00;97079.56;;;18.86;66.71
55914;BME280;58179;48.776;9.124;2022-09-09T09:03:35;97079.56;;;18.86;62.50
55914;BME280;58179;48.776;9.124;2022-09-09T09:06:13;97093.50;;;19.05;67.51
55914;BME280;58179;48.776;9.124;2022-09-09T09:08:51;97095.88;;;19.15;66.95
55914;BME280;58179;48.776;9.124;2022-09-09T09:11:19;97093.03;;;19.12;65.72
55914;BME280;58179;48.776;9.124;2022-09-09T09:13:51;97087.97;;;19.02;66.28
55914;BME280;58179;48.776;9.124;2022-09-09T09:16:26;97091.22;;;18.81;67.80
55914;BME280;58179;48.776;9.124;2022-09-09T09:18:57;97085.44;;;18.57;70.51
55914;BME280;58179;48.776;9.124;2022-09-09T09:21:34;97092.59;;;18.39;70.45
55914;BME280;58179;48.776;9.124;2022-09-09T09:24:05;97098.22;;;18.29;71.29
55914;BME280;58179;48.776;9.124;2022-09-09T09:26:34;97102.16;;;18.01;70.92
55914;BME280;58179;48.776;9.124;2022-09-09T09:29:08;97095.44;;;17.90;73.25
55914;BME280;58179;48.776;9.124;2022-09-09T09:31:37;97104.47;;;17.71;76.13
55914;BME280;58179;48.776;9.124;2022-09-09T09:34:03;97101.84;;;17.44;70.41
55914;BME280;58179;48.776;9.124;2022-09-09T09:36:37;97111.06;;;17.38;74.21
55914;BME280;58179;48.776;9.124;2022-09-09T09:39:04;97103.28;;;17.28;73.45
55914;BME280;58179;48.776;9.124;2022-09-09T09:41:34;97098.00;;;17.23;73.35
55914;BME280;58179;48.776;9.124;2022-09-09T09:44:02;97090.06;;;17.31;74.84
55914;BME280;58179;48.776;9.124;2022-09-09T09:46:28;97092.38;;;17.60;71.89
55914;BME280;58179;48.776;9.124;2022-09-09T09:49:00;97090.22;;;17.62;72.29
55914;BME280;58179;48.776;9.124;2022-09-09T09:51:27;97083.34;;;17.70;69.17
55914;BME280;58179;48.776;9.124;2022-09-09T09:53:54;97071.97;;;17.87;67.34
55914;BME280;58179;48.776;9.124;2022-09-09T09:56:27;97075.41;;;18.09;69.54
55914;BME280;58179;48.776;9.124;2022-09-09T09:58:58;97059.84;;;18.11;63.79
55914;BME280;58179;48.776;9.124;2022-09-09T10:01:26;97057.22;;;18.29;64.75
55914;BME280;58179;48.776;9.124;2022-09-09T10:03:57;97049.75;;;18.48;63.91
55914;BME280;58179;48.776;9.124;2022-09-09T10:06:32;97064.28;;;19.04;67.27
55914;BME280;58179;48.776;9.124;2022-09-09T10:08:59;97058.31;;;19.32;61.21
55914;BME280;58179;48.776;9.124;2022-09-09T10:11:40;97045.72;;;19.50;60.85
55914;BME280;58179;48.776;9.124;2022-09-09T10:14:19;97036.50;;;19.94;65.32
55914;BME280;58179;48.776;9.124;2022-09-09T10:17:01;97038.97;;;20.17;58.82
55914;BME280;58179;48.776;9.124;2022-09-09T10:19:33;97042.81;;;20.54;57.85
55914;BME280;58179;48.776;9.124;2022-09-09T10:22:23;97029.09;;;20.46;55.84
55914;BME280;58179;48.776;9.124;2022-09-09T10:28:24;97037.47;;;20.45;58.40
55914;BME280;58179;48.776;9.124;2022-09-09T10:31:04;97029.00;;;20.26;58.23
55914;BME280;58179;48.776;9.124;2022-09-09T10:33:44;97035.38;;;20.13;59.44
55914;BME280;58179;48.776;9.124;2022-09-09T10:36:18;97034.38;;;20.17;62.72
55914;BME280;58179;48.776;9.124;2022-09-09T10:38:48;97037.66;;;20.40;59.53
55914;BME280;58179;48.776;9.124;2022-09-09T10:41:21;97030.69;;;20.39;57.47
55914;BME280;58179;48.776;9.124;2022-09-09T10:44:24;97032.16;;;20.36;59.59
55914;BME280;58179;48.776;9.124;2022-09-09T10:47:12;97031.47;;;20.48;54.90
55914;BME280;58179;48.776;9.124;2022-09-09T10:50:11;97038.63;;;20.73;52.96
55914;BME280;58179;48.776;9.124;2022-09-09T10:52:44;97033.59;;;20.63;54.43
55914;BME280;58179;48.776;9.124;2022-09-09T10:55:20;97041.19;;;20.61;54.56
55914;BME280;58179;48.776;9.124;2022-09-09T10:57:53;97033.75;;;20.67;54.33
55914;BME280;58179;48.776;9.124;2022-09-09T11:00:22;97030.59;;;20.65;55.68
55914;BME280;58179;48.776;9.124;2022-09-09T11:02:52;97031.63;;;20.52;53.62
55914;BME280;58179;48.776;9.124;2022-09-09T11:05:26;97036.38;;;20.75;58.95
55914;BME280;58179;48.776;9.124;2022-09-09T11:07:57;97046.94;;;20.89;58.10
55914;BME280;58179;48.776;9.124;2022-09-09T11:10:34;97046.28;;;20.54;56.87
55914;BME280;58179;48.776;9.124;2022-09-09T11:13:10;97042.72;;;20.41;59.48
55914;BME280;58179;48.776;9.124;2022-09-09T11:15:44;97049.69;;;20.25;58.94
55914;BME280;58179;48.776;9.124;2022-09-09T11:18:15;97062.72;;;20.15;58.21
55914;BME280;58179;48.776;9.124;2022-09-09T11:20:45;97060.84;;;19.98;56.86
55914;BME280;58179;48.776;9.124;2022-09-09T11:23:17;97072.50;;;20.10;59.54
55914;BME280;58179;48.776;9.124;2022-09-09T11:25:49;97069.94;;;20.23;53.34
55914;BME280;58179;48.776;9.124;2022-09-09T11:28:37;97081.38;;;20.11;54.84
55914;BME280;58179;48.776;9.124;2022-09-09T11:31:27;97097.66;;;20.15;55.77
55914;BME280;58179;48.776;9.124;2022-09-09T11:34:17;97087.53;;;19.94;55.99
55914;BME280;58179;48.776;9.124;2022-09-09T11:40:08;97091.19;;;19.73;59.77
55914;BME280;58179;48.776;9.124;2022-09-09T11:42:36;97092.94;;;19.60;58.97
55914;BME280;58179;48.776;9.124;2022-09-09T11:45:15;97097.84;;;19.75;58.77
55914;BME280;58179;48.776;9.124;2022-09-09T11:47:52;97081.91;;;19.53;58.74
55914;BME280;58179;48.776;9.124;2022-09-09T11:50:30;97085.84;;;19.55;62.39
55914;BME280;58179;48.776;9.124;2022-09-09T11:53:21;97075.88;;;19.39;64.04
55914;BME280;58179;48.776;9.124;2022-09-09T11:56:03;97063.69;;;19.41;63.71
55914;BME280;58179;48.776;9.124;2022-09-09T11:58:37;97061.19;;;19.45;65.54
55914;BME280;58179;48.776;9.124;2022-09-09T12:01:16;97063.84;;;19.19;56.17
55914;BME280;58179;48.776;9.124;2022-09-09T12:03:45;97067.81;;;19.30;59.39
55914;BME280;58179;48.776;9.124;2022-09-09T12:06:16;97062.78;;;19.54;61.15
55914;BME280;58179;48.776;9.124;2022-09-09T12:08:48;97061.50;;;19.43;59.78
55914;BME280;58179;48.776;9.124;2022-09-09T12:11:25;97052.06;;;19.54;61.13
55914;BME280;58179;48.776;9.124;2022-09-09T12:13:55;97046.22;;;19.61;60.05
55914;BME280;58179;48.776;9.124;2022-09-09T12:16:34;97045.84;;;19.88;60.27
55914;BME280;58179;48.776;9.124;2022-09-09T12:19:12;97052.13;;;20.01;55.85
55914;BME280;58179;48.776;9.124;2022-09-09T12:21:54;97065.19;;;20.28;57.56
55914;BME280;58179;48.776;9.124;2022-09-09T12:24:32;97054.72;;;20.82;55.55
55914;BME280;58179;48.776;9.124;2022-09-09T12:27:15;97042.22;;;20.77;59.13
55914;BME280;58179;48.776;9.124;2022-09-09T12:30:03;97047.94;;;20.76;51.92
55914;BME280;58179;48.776;9.124;2022-09-09T12:32:29;97052.84;;;21.03;51.82
55914;BME280;58179;48.776;9.124;2022-09-09T12:34:58;97038.94;;;20.72;49.59
55914;BME280;58179;48.776;9.124;2022-09-09T12:37:32;97039.63;;;20.60;54.79
55914;BME280;58179;48.776;9.124;2022-09-09T12:40:02;97045.19;;;20.55;51.18
55914;BME280;58179;48.776;9.124;2022-09-09T12:42:30;97057.44;;;20.73;54.00
55914;BME280;58179;48.776;9.124;2022-09-09T12:45:00;97050.06;;;20.62;54.94
55914;BME280;58179;48.776;9.124;2022-09-09T12:47:36;97044.16;;;20.39;50.23
55914;BME280;58179;48.776;9.124;2022-09-09T12:50:04;97036.88;;;20.69;52.86
55914;BME280;58179;48.776;9.124;2022-09-09T12:52:34;97025.88;;;21.12;51.16
55914;BME280;58179;48.776;9.124;2022-09-09T12:55:03;97025.78;;;21.83;49.29
55914;BME280;58179;48.776;9.124;2022-09-09T12:57:34;97019.19;;;22.62;49.74
55914;BME280;58179;48.776;9.124;2022-09-09T13:00:13;97022.69;;;23.39;48.55
55914;BME280;58179;48.776;9.124;2022-09-09T13:02:52;97012.75;;;23.99;44.47
55914;BME280;58179;48.776;9.124;2022-09-09T13:05:23;97031.56;;;25.01;46.48
55914;BME280;58179;48.776;9.124;2022-09-09T13:07:49;97025.69;;;25.34;44.56
55914;BME280;58179;48.776;9.124;2022-09-09T13:10:23;97025.66;;;25.69;42.80
55914;BME280;58179;48.776;9.124;2022-09-09T13:12:50;97005.25;;;26.40;43.10
55914;BME280;58179;48.776;9.124;2022-09-09T13:15:22;97016.50;;;26.19;38.33
55914;BME280;58179;48.776;9.124;2022-09-09T13:17:57;97008.16;;;26.09;40.74
55914;BME280;58179;48.776;9.124;2022-09-09T13:20:24;97012.03;;;25.66;41.90
55914;BME280;58179;48.776;9.124;2022-09-09T13:22:52;97009.31;;;24.61;40.28
55914;BME280;58179;48.776;9.124;2022-09-09T13:25:23;97000.69;;;24.24;44.79
55914;BME280;58179;48.776;9.124;2022-09-09T13:27:59;96996.41;;;24.70;45.38
55914;BME280;58179;48.776;9.124;2022-09-09T13:30:31;97004.78;;;25.35;38.63